Coulee City, Washington
Current Conditions -  °F | °C
As of 9:14 PM on Wednesday 17 Dec 2014 (Local Time) from KEPH Reporting Station
Broken Clouds Broken Clouds  
Wind Chill: 32°   Ceiling: 2000
Heat Index: 37°   Visibility: 10mi
Dew Point: 34°   Wind: 7mph
Humidity: 89%   Direction: 310°NW
Pressure: 29.95"   Gusts: NA
Location:  47.61°N, 119.29°W
Report Text: KEPH 180514Z AUTO 31006KT 10SM BKN020 03/01 A2995 RMK AO2 T00280011
Loading
Personal Weather Stations






























Interactive Weather Map New forecast layout! Learn more

10-Day Weather Forecast

Advertisements
Track Severe Weather on mobile